Time;durP1;ratioP1;P1;durP2;ratioP2;P2;SDS_P1;SDS_P2;PMS_P1;PMS_P2;Temp;Humidity;BMP_temperature;BMP_pressure;BME280_temperature;BME280_humidity;BME280_pressure;Samples;Min_cycle;Max_cycle;Signal;HPM_P1;HPM_P2
2022/08/10 00:00:25;;;;;;;27.50;26.00;;;;;;;20.72;44.96;97335.25;5033954;28;20191;-63
2022/08/10 00:02:56;;;;;;;18.48;17.35;;;;;;;20.64;45.09;97327.84;5033693;28;20187;-63
2022/08/10 00:05:23;;;;;;;17.35;16.45;;;;;;;20.64;45.18;97325.97;5033716;28;20191;-64
2022/08/10 00:07:49;;;;;;;15.25;14.45;;;;;;;20.54;45.47;97325.25;5033534;28;20210;-64
2022/08/10 00:10:18;;;;;;;14.18;13.27;;;;;;;20.50;45.78;97329.53;5033291;28;20193;-63
2022/08/10 00:12:44;;;;;;;14.00;13.15;;;;;;;20.49;45.74;97328.75;5032679;28;20556;-63
2022/08/10 00:15:12;;;;;;;11.98;11.38;;;;;;;20.52;45.65;97333.50;5033626;28;20238;-64
2022/08/10 00:17:37;;;;;;;12.95;12.25;;;;;;;20.51;45.89;97321.25;5030983;28;20270;-63
2022/08/10 00:20:03;;;;;;;14.15;13.45;;;;;;;20.45;45.90;97327.69;5033638;28;20195;-63
2022/08/10 00:22:29;;;;;;;16.98;16.08;;;;;;;20.40;46.07;97329.56;5033436;28;20562;-63
2022/08/10 00:24:56;;;;;;;16.65;15.77;;;;;;;20.36;46.50;97331.22;5032916;28;20270;-63
2022/08/10 00:27:25;;;;;;;29.75;28.10;;;;;;;20.40;46.09;97326.91;5034885;28;20245;-63
2022/08/10 00:29:51;;;;;;;38.30;36.33;;;;;;;20.37;46.41;97330.16;5033335;28;20202;-63
2022/08/10 00:32:16;;;;;;;61.10;57.97;;;;;;;20.32;46.63;97325.66;5033136;28;20297;-63
2022/08/10 00:34:42;;;;;;;92.82;88.07;;;;;;;20.29;46.78;97326.16;5033221;28;20576;-63
2022/08/10 00:37:07;;;;;;;97.60;92.75;;;;;;;20.34;46.64;97332.28;5032964;28;20252;-63
2022/08/10 00:39:33;;;;;;;107.25;101.97;;;;;;;20.36;46.76;97326.69;5033052;28;20191;-63
2022/08/10 00:41:59;;;;;;;96.88;91.50;;;;;;;20.28;47.05;97330.69;5032878;28;20183;-63
2022/08/10 00:44:24;;;;;;;63.10;59.88;;;;;;;20.22;47.33;97323.81;5032255;28;20277;-65
2022/08/10 00:46:50;;;;;;;48.42;45.90;;;;;;;20.20;47.52;97325.16;5033095;28;20183;-64
2022/08/10 00:49:16;;;;;;;39.67;37.50;;;;;;;20.21;47.45;97322.22;5032937;28;20303;-64
2022/08/10 00:51:42;;;;;;;50.45;47.55;;;;;;;20.18;47.44;97325.41;5033416;28;20206;-64
2022/08/10 00:54:08;;;;;;;69.90;66.28;;;;;;;20.10;47.88;97328.66;5032672;28;20182;-64
2022/08/10 00:56:34;;;;;;;80.07;75.68;;;;;;;20.15;47.75;97320.66;5032618;28;20195;-65
2022/08/10 00:58:59;;;;;;;131.80;125.18;;;;;;;20.07;47.93;97320.41;5033055;28;20194;-65
2022/08/10 01:01:25;;;;;;;165.40;157.25;;;;;;;20.03;48.05;97312.19;5032991;28;20656;-64
2022/08/10 01:03:50;;;;;;;221.23;210.60;;;;;;;19.96;48.37;97325.00;5032390;28;20229;-64
2022/08/10 01:06:25;;;;;;;236.77;225.32;;;;;;;20.01;48.13;97316.19;5031694;28;20635;-64
2022/08/10 01:09:15;;;;;;;260.42;247.68;;;;;;;20.04;48.27;97313.00;5033015;28;20284;-64
2022/08/10 01:11:52;;;;;;;289.30;275.00;;;;;;;20.01;48.45;97314.31;5032889;28;20187;-64
2022/08/10 01:14:36;;;;;;;298.45;283.45;;;;;;;19.94;48.67;97324.50;5031824;28;20175;-64
2022/08/10 01:17:16;;;;;;;331.10;314.58;;;;;;;19.85;48.97;97318.91;5032328;28;20186;-64
2022/08/10 01:20:00;;;;;;;319.60;303.58;;;;;;;19.98;49.05;97314.09;5032709;28;20201;-64
2022/08/10 01:22:41;;;;;;;320.75;304.63;;;;;;;19.84;49.19;97322.66;5032390;28;20659;-64
2022/08/10 01:25:25;;;;;;;307.90;292.17;;;;;;;19.84;49.34;97322.66;5034663;28;20186;-64
2022/08/10 01:27:58;;;;;;;271.30;257.38;;;;;;;19.85;49.21;97329.56;5037668;28;20274;-64
2022/08/10 01:30:29;;;;;;;250.10;237.25;;;;;;;19.71;49.65;97317.94;5032554;28;20244;-64
2022/08/10 01:33:08;;;;;;;268.25;254.10;;;;;;;19.72;49.91;97326.69;5032231;28;20243;-64
2022/08/10 01:35:42;;;;;;;234.73;222.60;;;;;;;19.74;49.85;97329.88;5032667;28;20631;-64
2022/08/10 01:38:21;;;;;;;201.25;190.63;;;;;;;19.78;49.73;97325.63;5032562;28;20743;-64
2022/08/10 01:41:05;;;;;;;185.95;176.05;;;;;;;19.70;49.86;97321.66;5032115;28;20197;-64
2022/08/10 01:43:33;;;;;;;135.82;128.85;;;;;;;19.68;50.05;97322.97;5031834;28;20174;-63
2022/08/10 01:46:02;;;;;;;119.72;113.45;;;;;;;19.65;50.32;97327.00;5032429;28;20278;-64
2022/08/10 01:48:34;;;;;;;92.00;87.22;;;;;;;19.66;50.26;97327.78;5032447;28;20202;-64
2022/08/10 01:51:25;;;;;;;64.85;61.28;;;;;;;19.64;50.26;97325.38;5032420;28;20228;-64
2022/08/10 01:54:04;;;;;;;59.20;56.00;;;;;;;19.62;50.42;97324.06;5031874;28;20603;-64
2022/08/10 01:56:33;;;;;;;39.90;37.80;;;;;;;19.57;50.64;97327.53;5031817;28;20190;-66
2022/08/10 01:59:03;;;;;;;27.38;25.95;;;;;;;19.55;50.72;97326.22;5032884;28;20643;-64
2022/08/10 02:01:34;;;;;;;22.48;21.13;;;;;;;19.64;50.56;97325.38;5031792;28;20183;-65
2022/08/10 02:04:04;;;;;;;21.52;20.30;;;;;;;19.60;50.54;97324.34;5031895;28;20739;-64
2022/08/10 02:06:32;;;;;;;17.85;16.92;;;;;;;19.60;50.62;97324.34;5032439;28;20351;-64
2022/08/10 02:08:59;;;;;;;19.40;18.40;;;;;;;19.61;50.64;97333.91;5032229;28;20206;-65
2022/08/10 02:11:27;;;;;;;20.38;19.10;;;;;;;19.55;50.90;97328.88;5019503;28;20190;-64
2022/08/10 02:13:55;;;;;;;21.23;20.05;;;;;;;19.56;50.79;97325.16;5030121;28;20266;-65
2022/08/10 02:16:24;;;;;;;20.40;19.38;;;;;;;19.48;50.96;97324.63;5032118;28;20220;-65
2022/08/10 02:18:52;;;;;;;21.08;19.70;;;;;;;19.51;50.92;97326.75;5034825;28;20635;-64
2022/08/10 02:21:19;;;;;;;22.38;21.17;;;;;;;19.42;51.23;97320.38;5035736;28;20237;-65
2022/08/10 02:23:45;;;;;;;26.95;25.35;;;;;;;19.35;51.55;97327.81;5035671;28;20185;-64
2022/08/10 02:26:12;;;;;;;25.70;24.33;;;;;;;19.41;51.27;97325.94;5041316;28;20280;-64
2022/08/10 02:28:38;;;;;;;24.00;22.70;;;;;;;19.44;51.23;97322.75;5035581;28;20206;-65
2022/08/10 02:31:17;;;;;;;26.02;24.38;;;;;;;19.43;51.30;97324.63;5035830;28;20210;-64
2022/08/10 02:33:47;;;;;;;28.25;26.65;;;;;;;19.33;51.44;97326.50;5036024;28;20569;-64
2022/08/10 02:36:15;;;;;;;24.67;23.38;;;;;;;19.36;51.34;97324.09;5034351;28;20620;-64
2022/08/10 02:38:50;;;;;;;28.67;27.05;;;;;;;19.39;51.20;97320.88;5035424;28;20643;-64
2022/08/10 02:41:31;;;;;;;26.88;25.27;;;;;;;19.33;51.72;97326.50;5035444;28;20531;-64
2022/08/10 02:44:12;;;;;;;29.55;27.88;;;;;;;19.23;51.92;97327.31;5035234;28;20264;-68
2022/08/10 02:47:01;;;;;;;29.35;27.80;;;;;;;19.18;51.88;97337.16;5035638;28;20261;-64
2022/08/10 02:49:34;;;;;;;31.30;29.58;;;;;;;19.26;51.80;97331.31;5035362;28;20216;-64
2022/08/10 02:52:23;;;;;;;31.88;30.17;;;;;;;19.21;51.92;97331.31;5035614;28;20202;-64
2022/08/10 02:54:57;;;;;;;33.42;31.63;;;;;;;19.20;51.92;97327.84;5035660;28;20186;-64
2022/08/10 02:57:27;;;;;;;35.78;33.78;;;;;;;19.10;52.32;97327.88;5035193;28;20186;-64
2022/08/10 02:59:56;;;;;;;30.75;29.15;;;;;;;19.01;52.32;97327.59;5035168;28;20219;-64
2022/08/10 03:02:31;;;;;;;33.75;31.85;;;;;;;18.95;52.66;97326.00;5034962;28;20546;-64
2022/08/10 03:05:02;;;;;;;35.63;33.72;;;;;;;19.00;52.41;97330.53;5035756;28;20194;-64
2022/08/10 03:07:31;;;;;;;36.58;34.50;;;;;;;19.05;52.54;97328.69;5035326;28;20190;-64
2022/08/10 03:09:58;;;;;;;37.15;35.13;;;;;;;19.07;52.22;97329.19;5035135;28;20233;-64
2022/08/10 03:12:26;;;;;;;38.33;36.03;;;;;;;19.06;52.20;97324.94;5035078;28;20194;-64
2022/08/10 03:14:53;;;;;;;36.23;34.10;;;;;;;18.99;52.53;97328.94;5035176;28;20182;-64
2022/08/10 03:17:20;;;;;;;38.78;36.65;;;;;;;18.90;52.81;97330.53;5033922;28;20214;-64
2022/08/10 03:19:46;;;;;;;43.83;41.53;;;;;;;18.90;52.65;97320.69;5035414;28;20195;-64
2022/08/10 03:22:14;;;;;;;39.75;37.63;;;;;;;18.93;52.75;97328.16;5034772;28;20213;-65
2022/08/10 03:24:41;;;;;;;39.10;37.03;;;;;;;18.84;52.89;97324.41;5024236;28;20197;-64
2022/08/10 03:27:08;;;;;;;38.88;36.88;;;;;;;18.83;52.77;97322.84;5034116;28;20227;-64
2022/08/10 03:29:35;;;;;;;39.00;36.83;;;;;;;18.83;52.88;97319.38;5034312;28;20541;-64
2022/08/10 03:32:02;;;;;;;38.13;36.10;;;;;;;18.90;52.67;97317.22;5034646;28;20221;-64
2022/08/10 03:34:27;;;;;;;35.75;33.72;;;;;;;18.87;52.43;97321.25;5034572;28;20189;-64
2022/08/10 03:36:53;;;;;;;34.58;32.72;;;;;;;18.80;52.60;97314.59;5034628;28;20186;-64
2022/08/10 03:39:18;;;;;;;36.80;34.50;;;;;;;18.84;52.31;97332.38;5034851;28;20186;-65
2022/08/10 03:41:47;;;;;;;35.05;32.90;;;;;;;18.73;52.42;97327.31;5034383;28;20174;-64
2022/08/10 03:44:17;;;;;;;29.60;28.08;;;;;;;18.83;52.47;97330.00;5034140;28;20183;-64
2022/08/10 03:46:45;;;;;;;29.38;27.77;;;;;;;18.72;52.78;97329.22;5034441;28;20587;-64
2022/08/10 03:49:12;;;;;;;27.90;26.38;;;;;;;18.79;52.50;97326.25;5034645;28;20195;-65
2022/08/10 03:51:38;;;;;;;34.05;32.17;;;;;;;18.78;52.45;97330.00;5033781;28;20652;-63
2022/08/10 03:54:04;;;;;;;31.48;29.85;;;;;;;18.76;52.51;97329.47;5034066;28;20196;-64
2022/08/10 03:56:31;;;;;;;31.95;30.20;;;;;;;18.77;52.56;97323.91;5034079;28;20206;-62
2022/08/10 03:58:57;;;;;;;35.47;33.47;;;;;;;18.63;52.80;97330.78;5034073;28;20628;-63
2022/08/10 04:01:23;;;;;;;32.28;30.38;;;;;;;18.61;52.97;97330.25;5033769;28;20186;-63
2022/08/10 04:03:48;;;;;;;31.80;29.80;;;;;;;18.69;52.75;97327.06;5034191;28;20187;-62
2022/08/10 04:06:14;;;;;;;28.13;26.63;;;;;;;18.65;52.56;97329.47;5034070;28;20185;-62
2022/08/10 04:08:43;;;;;;;34.33;32.13;;;;;;;18.62;52.73;97337.94;5033778;28;20622;-63
2022/08/10 04:11:10;;;;;;;35.38;33.08;;;;;;;18.63;52.96;97341.41;5032059;28;20186;-62
2022/08/10 04:13:36;;;;;;;47.08;43.65;;;;;;;18.57;53.12;97339.78;5033689;28;20194;-63
2022/08/10 04:16:02;;;;;;;52.83;48.22;;;;;;;18.59;52.99;97343.00;5032936;28;20194;-62
2022/08/10 04:18:27;;;;;;;52.47;46.97;;;;;;;18.59;52.78;97343.78;5033792;28;20334;-62
2022/08/10 04:20:58;;;;;;;64.63;57.90;;;;;;;18.62;52.41;97351.22;5033383;28;20517;-63
2022/08/10 04:23:27;;;;;;;61.63;55.75;;;;;;;18.62;52.34;97342.47;5034118;28;20179;-63
2022/08/10 04:25:54;;;;;;;48.00;43.47;;;;;;;18.75;52.23;97341.94;5039596;28;20218;-62
2022/08/10 04:28:21;;;;;;;43.70;39.40;;;;;;;18.67;52.51;97347.78;5031758;28;20297;-62
2022/08/10 04:30:48;;;;;;;43.33;39.40;;;;;;;18.61;52.46;97348.84;5022524;28;20190;-62
2022/08/10 04:33:17;;;;;;;37.70;34.17;;;;;;;18.75;52.21;97349.13;5033166;28;20260;-62
2022/08/10 04:35:45;;;;;;;36.15;32.53;;;;;;;18.71;52.50;97354.16;5033616;28;20222;-62
2022/08/10 04:38:13;;;;;;;33.00;30.40;;;;;;;18.72;52.48;97355.78;5032758;28;20599;-63
2022/08/10 04:40:40;;;;;;;29.42;27.27;;;;;;;18.74;52.52;97352.81;5032565;28;20236;-62
2022/08/10 04:43:06;;;;;;;28.53;26.63;;;;;;;18.62;52.89;97348.56;5033694;28;20197;-62
2022/08/10 04:45:32;;;;;;;27.83;26.05;;;;;;;18.59;52.63;97353.63;5032442;28;20183;-62
2022/08/10 04:47:58;;;;;;;27.10;25.15;;;;;;;18.69;52.56;97349.13;5032351;28;20549;-62
2022/08/10 04:50:23;;;;;;;29.75;27.75;;;;;;;18.63;52.73;97352.03;5031937;28;20186;-62
2022/08/10 04:52:49;;;;;;;26.95;25.45;;;;;;;18.67;52.80;97350.41;5032826;28;20175;-63
2022/08/10 04:55:14;;;;;;;26.63;25.13;;;;;;;18.76;52.28;97353.38;5032923;28;20191;-62
2022/08/10 04:57:39;;;;;;;27.60;26.10;;;;;;;18.91;52.32;97359.47;5032760;28;20273;-62
2022/08/10 05:00:06;;;;;;;25.20;23.60;;;;;;;19.10;51.91;97357.91;5032986;28;20535;-62
2022/08/10 05:02:31;;;;;;;27.90;26.10;;;;;;;19.31;51.16;97350.69;5032625;28;20553;-63
2022/08/10 05:04:57;;;;;;;28.73;27.08;;;;;;;19.34;50.79;97350.16;5032716;28;20194;-63
2022/08/10 05:07:22;;;;;;;30.15;28.55;;;;;;;19.47;50.53;97354.16;5032766;28;20178;-64
2022/08/10 05:09:49;;;;;;;24.45;23.05;;;;;;;19.57;50.23;97353.31;5032113;28;20289;-63
2022/08/10 05:12:15;;;;;;;40.40;38.13;;;;;;;19.63;50.07;97350.38;5032398;28;20189;-63
2022/08/10 05:14:40;;;;;;;50.45;47.53;;;;;;;19.78;49.32;97352.22;5032193;28;20183;-66
2022/08/10 05:17:06;;;;;;;66.10;62.63;;;;;;;19.92;48.82;97359.34;5032169;28;20196;-63
2022/08/10 05:19:31;;;;;;;73.43;69.43;;;;;;;20.06;48.80;97361.44;5032415;28;20245;-64
2022/08/10 05:21:56;;;;;;;190.15;179.93;;;;;;;20.18;48.45;97368.00;5032187;28;20278;-64
2022/08/10 05:24:22;;;;;;;236.18;223.52;;;;;;;20.23;48.57;97359.19;5032380;28;20628;-64
2022/08/10 05:26:47;;;;;;;318.45;301.40;;;;;;;20.54;47.82;97365.19;5032513;28;20561;-63
2022/08/10 05:29:12;;;;;;;302.73;286.67;;;;;;;20.26;48.49;97354.13;5032537;28;20602;-64
2022/08/10 05:31:38;;;;;;;270.45;256.20;;;;;;;20.66;47.75;97360.34;5032520;28;20183;-64
2022/08/10 05:34:03;;;;;;;234.20;221.93;;;;;;;20.63;47.23;97356.34;5032136;28;20193;-67
2022/08/10 05:36:29;;;;;;;163.88;155.00;;;;;;;20.78;46.77;97354.66;5032156;28;20182;-64
2022/08/10 05:38:56;;;;;;;161.07;152.60;;;;;;;20.80;47.10;97357.81;5032371;28;20289;-64
2022/08/10 05:41:22;;;;;;;106.40;100.82;;;;;;;20.33;48.22;97356.53;5032239;28;20269;-65
2022/08/10 05:43:47;;;;;;;137.60;130.20;;;;;;;20.52;47.67;97362.00;5031876;28;20191;-64
2022/08/10 05:46:13;;;;;;;140.93;133.52;;;;;;;20.80;47.16;97355.16;5031735;28;20269;-64
2022/08/10 05:48:40;;;;;;;115.18;109.15;;;;;;;21.31;46.48;97364.38;5031771;28;20588;-64
2022/08/10 05:51:05;;;;;;;50.80;47.85;;;;;;;20.61;47.25;97361.16;5036087;28;20289;-63
2022/08/10 05:53:33;;;;;;;46.03;43.03;;;;;;;20.71;47.20;97366.41;5038649;28;20206;-64
2022/08/10 05:55:59;;;;;;;61.28;58.05;;;;;;;21.24;46.89;97369.22;5039134;28;20217;-64
2022/08/10 05:58:26;;;;;;;49.65;46.97;;;;;;;21.09;46.92;97370.13;5038528;28;20190;-64
2022/08/10 06:00:55;;;;;;;36.47;34.10;;;;;;;21.18;46.85;97364.25;5038759;28;20589;-63
2022/08/10 06:03:28;;;;;;;36.90;34.88;;;;;;;21.82;45.45;97363.84;5038855;28;20182;-64
2022/08/10 06:05:57;;;;;;;46.28;43.55;;;;;;;21.51;45.89;97374.84;5038595;28;20566;-64
2022/08/10 06:08:27;;;;;;;45.40;42.92;;;;;;;21.38;45.81;97367.50;5038525;28;20260;-63
2022/08/10 06:10:58;;;;;;;44.15;41.67;;;;;;;21.73;44.96;97369.03;5038757;28;20340;-64
2022/08/10 06:16:12;;;;;;;20.20;19.10;;;;;;;21.56;44.89;97372.13;5037671;28;20194;-64
2022/08/10 06:18:38;;;;;;;23.58;22.13;;;;;;;21.51;45.19;97374.06;5037732;28;20190;-63
2022/08/10 06:21:05;;;;;;;17.95;16.27;;;;;;;21.19;45.77;97365.81;5034450;28;20197;-63
2022/08/10 06:23:31;;;;;;;22.38;21.05;;;;;;;21.44;45.80;97370.94;5039919;28;20190;-63
2022/08/10 06:25:57;;;;;;;25.80;24.27;;;;;;;21.84;44.70;97373.19;5034895;28;20241;-63
2022/08/10 06:28:24;;;;;;;25.00;23.50;;;;;;;21.46;45.36;97374.09;5035154;28;20194;-63
2022/08/10 06:30:52;;;;;;;58.88;55.75;;;;;;;21.45;44.62;97364.50;5038250;28;20662;-64
2022/08/10 06:33:22;;;;;;;26.92;25.05;;;;;;;21.36;45.20;97369.66;5034665;28;21635;-63
2022/08/10 06:35:52;;;;;;;22.60;21.27;;;;;;;21.90;45.14;97361.34;5035821;28;20197;-63
2022/08/10 06:38:20;;;;;;;28.17;26.30;;;;;;;22.33;43.96;97366.72;5029112;28;20198;-63
2022/08/10 06:40:47;;;;;;;56.15;53.17;;;;;;;22.04;44.35;97363.34;5038222;28;20674;-63
2022/08/10 06:43:16;;;;;;;90.45;85.88;;;;;;;22.05;44.10;97364.94;5037102;28;20195;-63
2022/08/10 06:45:46;;;;;;;98.68;93.53;;;;;;;21.68;45.05;97373.63;5038095;28;20250;-63
2022/08/10 06:48:21;;;;;;;84.65;80.07;;;;;;;22.38;43.50;97372.81;5037833;28;20179;-63
2022/08/10 06:50:50;;;;;;;69.25;65.03;;;;;;;22.57;43.09;97369.34;5038565;28;20170;-63
2022/08/10 06:53:17;;;;;;;83.50;79.32;;;;;;;22.88;42.41;97367.84;5038025;28;20527;-63
2022/08/10 06:55:56;;;;;;;274.25;260.80;;;;;;;22.22;43.34;97360.72;5038555;28;20191;-63
2022/08/10 06:58:25;;;;;;;78.45;74.15;;;;;;;22.24;43.27;97369.22;5038064;28;20194;-63
2022/08/10 07:00:52;;;;;;;70.35;66.85;;;;;;;21.86;44.11;97359.53;5037997;28;20182;-64
2022/08/10 07:03:19;;;;;;;68.95;64.90;;;;;;;21.63;44.15;97369.13;5029814;28;20194;-63
2022/08/10 07:05:47;;;;;;;56.92;53.97;;;;;;;21.78;44.25;97373.50;5032612;28;20194;-64
2022/08/10 07:08:19;;;;;;;72.95;69.28;;;;;;;21.87;43.89;97367.25;5029064;28;20270;-64
2022/08/10 07:10:46;;;;;;;57.65;54.70;;;;;;;21.91;43.84;97370.13;5035024;28;20186;-64
2022/08/10 07:13:15;;;;;;;73.93;70.20;;;;;;;21.97;44.16;97375.16;5034814;28;20615;-64
2022/08/10 07:15:42;;;;;;;67.97;64.55;;;;;;;22.47;42.95;97375.59;5034114;28;20205;-64
2022/08/10 07:18:10;;;;;;;63.80;60.42;;;;;;;22.18;43.64;97378.38;5033751;28;20178;-64
2022/08/10 07:20:36;;;;;;;46.05;43.65;;;;;;;22.24;43.36;97366.56;5028348;28;20658;-64
2022/08/10 07:23:02;;;;;;;54.13;51.03;;;;;;;22.77;42.84;97383.25;5024070;28;20191;-64
2022/08/10 07:25:29;;;;;;;126.80;120.68;;;;;;;22.42;43.05;97367.66;5033634;28;20215;-64
2022/08/10 07:27:58;;;;;;;49.03;46.40;;;;;;;22.64;43.13;97367.88;5034345;28;20206;-64
2022/08/10 07:30:27;;;;;;;121.53;115.78;;;;;;;22.71;42.44;97364.84;5031759;28;20328;-64
2022/08/10 07:32:54;;;;;;;229.05;217.95;;;;;;;22.74;42.51;97369.63;5032959;28;20198;-65
2022/08/10 07:35:20;;;;;;;220.93;210.38;;;;;;;23.03;42.14;97356.91;5034215;28;20187;-65
2022/08/10 07:37:48;;;;;;;303.70;288.92;;;;;;;23.52;40.95;97369.72;5031840;28;20182;-64
2022/08/10 07:40:16;;;;;;;354.48;337.73;;;;;;;23.47;41.02;97372.50;5034457;28;20260;-66
2022/08/10 07:42:44;;;;;;;325.45;310.17;;;;;;;22.99;41.67;97366.59;5033066;28;20222;-64
2022/08/10 07:45:10;;;;;;;401.70;382.15;;;;;;;23.19;42.29;97366.25;5033313;28;20278;-64
2022/08/10 07:47:41;;;;;;;394.08;375.40;;;;;;;23.66;41.19;97372.44;5031895;28;20182;-63
2022/08/10 07:50:09;;;;;;;289.85;276.48;;;;;;;23.41;41.71;97370.16;5031926;28;20194;-64
2022/08/10 07:52:37;;;;;;;172.68;164.35;;;;;;;23.09;41.44;97365.63;5034515;28;20194;-65
2022/08/10 07:55:04;;;;;;;212.43;202.18;;;;;;;23.61;40.59;97367.16;5034068;28;20197;-65
2022/08/10 07:57:33;;;;;;;249.60;237.80;;;;;;;23.56;41.26;97364.59;5033952;28;20205;-64
2022/08/10 08:00:02;;;;;;;249.07;237.43;;;;;;;23.91;40.80;97363.09;5033749;28;20269;-63
2022/08/10 08:02:33;;;;;;;193.75;184.07;;;;;;;23.53;40.78;97370.50;5033527;28;20566;-64
2022/08/10 08:05:03;;;;;;;178.80;170.05;;;;;;;23.43;41.23;97362.66;5033640;28;20573;-64
2022/08/10 08:07:31;;;;;;;172.35;164.20;;;;;;;23.61;40.79;97361.81;5033342;28;20179;-64
2022/08/10 08:09:57;;;;;;;73.97;70.35;;;;;;;23.78;40.68;97366.59;5033445;28;20210;-65
2022/08/10 08:12:24;;;;;;;39.97;37.83;;;;;;;23.55;40.62;97363.00;5034019;28;20237;-64
2022/08/10 08:14:51;;;;;;;138.02;131.38;;;;;;;23.99;40.64;97362.41;5031853;28;20187;-64
2022/08/10 08:17:17;;;;;;;83.18;43.97;;;;;;;24.10;39.73;97358.44;5033794;28;20242;-64
2022/08/10 08:19:49;;;;;;;458.83;432.30;;;;;;;24.39;39.29;97363.50;5033494;28;20636;-64
2022/08/10 08:22:16;;;;;;;91.65;85.15;;;;;;;24.41;39.37;97361.28;5031314;28;20284;-64
2022/08/10 08:24:43;;;;;;;0.30;0.30;;;;;;;24.46;38.75;97361.22;5033303;28;20620;-64
2022/08/10 08:27:11;;;;;;;622.55;590.63;;;;;;;24.30;38.83;97367.97;5033192;28;20226;-65
2022/08/10 08:29:40;;;;;;;581.88;552.33;;;;;;;24.29;38.64;97366.41;5033075;28;20241;-63
2022/08/10 08:32:06;;;;;;;537.25;509.58;;;;;;;24.18;38.60;97375.75;5032555;28;20244;-63
2022/08/10 08:34:35;;;;;;;540.30;512.63;;;;;;;24.44;37.89;97366.06;5033154;28;20190;-63
2022/08/10 08:37:02;;;;;;;510.83;484.83;;;;;;;24.59;37.86;97370.28;5032194;28;20194;-63
2022/08/10 08:39:30;;;;;;;444.90;422.55;;;;;;;24.61;37.61;97360.06;5032471;28;20644;-63
2022/08/10 08:42:13;;;;;;;445.95;423.02;;;;;;;24.07;38.06;97372.44;5023535;28;20195;-63
2022/08/10 08:45:03;;;;;;;386.73;366.90;;;;;;;24.15;37.39;97365.56;5029776;28;20193;-63
2022/08/10 08:47:33;;;;;;;362.27;344.65;;;;;;;24.53;37.00;97358.09;5032423;28;20601;-63
2022/08/10 08:50:20;;;;;;;374.50;356.05;;;;;;;24.93;36.43;97359.06;5032768;28;20207;-63
2022/08/10 08:53:22;;;;;;;400.17;380.42;;;;;;;24.75;35.90;97353.56;5033017;28;20178;-64
2022/08/10 08:56:03;;;;;;;458.85;435.58;;;;;;;24.81;35.85;97356.91;5033415;28;20178;-64
2022/08/10 08:59:16;;;;;;;454.08;431.35;;;;;;;24.92;36.01;97352.13;5033358;28;20293;-64
2022/08/10 09:02:10;;;;;;;566.78;536.72;;;;;;;25.04;35.58;97350.47;4991336;28;20187;-65
2022/08/10 09:04:58;;;;;;;607.33;574.75;;;;;;;25.13;35.56;97356.69;4974117;28;20184;-65
2022/08/10 09:07:50;;;;;;;1.00;1.00;;;;;;;25.45;35.22;97344.88;5023204;28;20206;-62
2022/08/10 09:10:49;;;;;;;6.70;6.40;;;;;;;25.49;35.82;97351.22;5032923;28;20230;-63
2022/08/10 09:13:25;;;;;;;10.38;9.93;;;;;;;25.17;35.17;97351.53;5032914;28;20167;-63
2022/08/10 09:16:21;;;;;;;13.15;12.55;;;;;;;25.14;34.42;97349.44;5032298;28;20191;-63
2022/08/10 09:19:05;;;;;;;28.10;26.70;;;;;;;24.70;35.32;97342.94;5032056;28;20174;-63
2022/08/10 09:22:02;;;;;;;198.05;188.95;;;;;;;24.47;36.20;97352.03;5030240;28;20257;-63
2022/08/10 09:24:52;;;;;;;320.35;305.45;;;;;;;24.99;33.90;97353.28;5032198;28;20214;-64
2022/08/10 09:27:20;;;;;;;93.75;89.20;;;;;;;24.64;34.36;97346.84;5026644;28;20239;-65
2022/08/10 09:29:53;;;;;;;92.80;87.72;;;;;;;24.28;34.12;97344.16;5031230;28;20558;-64
2022/08/10 09:32:38;;;;;;;276.17;263.45;;;;;;;24.60;34.40;97337.81;5031874;28;20187;-67
2022/08/10 09:35:12;;;;;;;424.95;399.25;;;;;;;24.17;34.77;97339.28;5032199;28;20225;-67
2022/08/10 09:37:37;;;;;;;437.27;416.58;;;;;;;24.98;34.14;97340.97;5031635;28;20639;-66
2022/08/10 09:40:09;;;;;;;406.90;387.52;;;;;;;25.34;33.34;97327.47;5031449;28;20182;-66
2022/08/10 09:43:01;;;;;;;362.73;345.50;;;;;;;25.16;33.53;97333.81;5031554;28;20171;-66
2022/08/10 09:45:36;;;;;;;113.15;107.63;;;;;;;24.94;33.14;97329.28;5025278;28;20203;-64
2022/08/10 09:48:01;;;;;;;78.47;74.63;;;;;;;24.78;34.01;97333.41;5032037;28;20174;-67
2022/08/10 09:51:03;;;;;;;80.15;76.25;;;;;;;24.94;33.63;97321.22;5032340;28;20266;-65
2022/08/10 09:53:42;;;;;;;41.28;39.25;;;;;;;25.00;32.58;97338.00;5032314;28;20565;-65
2022/08/10 09:56:14;;;;;;;38.42;36.53;;;;;;;25.13;32.76;97329.84;5013703;28;20572;-65
2022/08/10 09:59:07;;;;;;;36.67;34.88;;;;;;;25.02;33.56;97323.16;5013360;28;20175;-66
2022/08/10 10:02:00;;;;;;;36.42;34.63;;;;;;;25.03;33.41;97319.38;5012880;28;20273;-65
2022/08/10 10:04:38;;;;;;;42.53;40.38;;;;;;;25.03;33.49;97321.28;5012196;28;20572;-64
2022/08/10 10:07:07;;;;;;;33.78;31.98;;;;;;;24.45;33.50;97327.44;5022397;28;20170;-65
2022/08/10 10:09:46;;;;;;;38.97;36.75;;;;;;;24.79;33.52;97311.66;5030108;28;20591;-65
2022/08/10 10:12:26;;;;;;;38.38;36.38;;;;;;;25.26;33.12;97312.09;5032060;28;20178;-64
2022/08/10 10:15:19;;;;;;;29.05;27.55;;;;;;;24.66;33.04;97319.72;5030418;28;20194;-65
2022/08/10 10:17:53;;;;;;;40.25;38.03;;;;;;;24.87;33.02;97326.19;5031874;28;20391;-65
2022/08/10 10:20:33;;;;;;;13.00;12.40;;;;;;;25.29;32.29;97324.13;5031581;28;20225;-63
2022/08/10 10:23:45;;;;;;;16.60;15.80;;;;;;;25.13;32.62;97323.72;5030840;28;20197;-65
2022/08/10 10:26:16;;;;;;;7.38;7.03;;;;;;;25.11;32.45;97328.59;5031295;28;20222;-66
2022/08/10 10:29:03;;;;;;;6.43;6.03;;;;;;;25.37;32.46;97323.34;5030617;28;20213;-66
2022/08/10 10:31:44;;;;;;;7.13;6.82;;;;;;;25.13;32.75;97323.72;5031468;28;20183;-65
2022/08/10 10:34:21;;;;;;;5.32;5.13;;;;;;;25.20;32.58;97319.50;5030648;28;20191;-65
2022/08/10 10:36:48;;;;;;;4.93;4.72;;;;;;;25.53;32.30;97311.09;5031079;28;20702;-64
2022/08/10 10:39:17;;;;;;;50.67;48.10;;;;;;;25.31;32.52;97305.81;5035238;28;20190;-65
2022/08/10 10:41:55;;;;;;;65.60;62.30;;;;;;;25.41;31.72;97314.38;5034592;28;20698;-66
2022/08/10 10:45:07;;;;;;;24.20;23.00;;;;;;;25.35;33.07;97312.16;5034006;28;20183;-65
2022/08/10 10:47:47;;;;;;;12.05;11.45;;;;;;;25.32;32.73;97310.88;5003646;28;20207;-65
2022/08/10 10:50:24;;;;;;;14.80;14.07;;;;;;;25.33;32.74;97315.13;5034910;28;20668;-63
2022/08/10 10:53:14;;;;;;;14.48;13.77;;;;;;;25.11;32.18;97315.19;5015622;28;20167;-64
2022/08/10 10:55:43;;;;;;;11.75;11.15;;;;;;;25.19;31.71;97309.84;5025871;28;20225;-64
2022/08/10 10:58:14;;;;;;;11.23;10.73;;;;;;;25.28;31.87;97304.53;5035193;28;20197;-64
2022/08/10 11:00:56;;;;;;;15.32;14.30;;;;;;;25.51;31.34;97303.38;5035396;28;20270;-65
2022/08/10 11:03:30;;;;;;;40.15;37.97;;;;;;;25.22;31.05;97297.72;5035147;28;20236;-64
2022/08/10 11:06:13;;;;;;;127.93;121.40;;;;;;;25.18;30.73;97302.13;5016704;28;20174;-64
2022/08/10 11:08:45;;;;;;;165.45;157.30;;;;;;;25.18;30.78;97300.25;5034556;28;20681;-65
2022/08/10 11:11:22;;;;;;;166.85;158.55;;;;;;;25.29;30.67;97295.41;5035112;28;20221;-64
2022/08/10 11:14:15;;;;;;;147.30;139.60;;;;;;;25.40;30.99;97293.22;5033937;28;20186;-64
2022/08/10 11:17:02;;;;;;;216.10;205.48;;;;;;;25.48;30.58;97303.19;5034340;28;20221;-64
2022/08/10 11:19:52;;;;;;;211.77;201.30;;;;;;;25.49;30.82;97297.53;5034325;28;20187;-64
2022/08/10 11:22:31;;;;;;;178.95;170.10;;;;;;;25.46;30.68;97292.78;5033357;28;20255;-64
2022/08/10 11:25:05;;;;;;;189.35;180.02;;;;;;;25.40;31.26;97304.75;5034493;28;20694;-65
2022/08/10 11:27:35;;;;;;;136.02;129.10;;;;;;;25.61;31.28;97283.53;5033849;28;20225;-63
2022/08/10 11:30:09;;;;;;;219.80;208.95;;;;;;;25.69;30.67;97285.44;5033814;28;20202;-64
2022/08/10 11:32:46;;;;;;;216.15;205.57;;;;;;;25.53;30.79;97289.63;5034003;28;20331;-64
2022/08/10 11:35:37;;;;;;;217.70;206.75;;;;;;;25.42;31.20;97296.38;5033330;28;20243;-64